sensor_id;sensor_type;location;lat;lon;timestamp;temperature;humidity
52565;DHT22;38460;53.106;7.004;2022-12-08T00:01:09;1.80;99.90
52565;DHT22;38460;53.106;7.004;2022-12-08T00:03:36;1.70;99.90
52565;DHT22;38460;53.106;7.004;2022-12-08T00:06:03;1.70;99.90
52565;DHT22;38460;53.106;7.004;2022-12-08T00:08:48;1.70;99.90
52565;DHT22;38460;53.106;7.004;2022-12-08T00:11:33;1.70;99.90
52565;DHT22;38460;53.106;7.004;2022-12-08T00:13:59;1.70;99.90
52565;DHT22;38460;53.106;7.004;2022-12-08T00:16:25;1.80;99.90
52565;DHT22;38460;53.106;7.004;2022-12-08T00:18:50;1.80;99.90
52565;DHT22;38460;53.106;7.004;2022-12-08T00:21:17;1.80;99.90
52565;DHT22;38460;53.106;7.004;2022-12-08T00:23:42;1.80;99.90
52565;DHT22;38460;53.106;7.004;2022-12-08T00:26:08;1.80;99.90
52565;DHT22;38460;53.106;7.004;2022-12-08T00:28:34;1.80;99.90
52565;DHT22;38460;53.106;7.004;2022-12-08T00:31:06;1.90;99.90
52565;DHT22;38460;53.106;7.004;2022-12-08T00:33:32;1.90;99.90
52565;DHT22;38460;53.106;7.004;2022-12-08T00:36:06;2.00;99.90
52565;DHT22;38460;53.106;7.004;2022-12-08T00:38:32;2.00;99.90
52565;DHT22;38460;53.106;7.004;2022-12-08T00:40:58;2.00;99.90
52565;DHT22;38460;53.106;7.004;2022-12-08T00:43:24;2.00;99.90
52565;DHT22;38460;53.106;7.004;2022-12-08T00:45:51;2.00;99.90
52565;DHT22;38460;53.106;7.004;2022-12-08T00:48:16;2.00;99.90
52565;DHT22;38460;53.106;7.004;2022-12-08T00:50:42;2.00;99.90
52565;DHT22;38460;53.106;7.004;2022-12-08T00:53:08;2.00;99.90
52565;DHT22;38460;53.106;7.004;2022-12-08T00:55:33;2.00;99.90
52565;DHT22;38460;53.106;7.004;2022-12-08T00:57:59;2.00;99.90
52565;DHT22;38460;53.106;7.004;2022-12-08T01:00:25;2.00;99.90
52565;DHT22;38460;53.106;7.004;2022-12-08T01:02:51;2.00;99.90
52565;DHT22;38460;53.106;7.004;2022-12-08T01:05:16;2.10;99.90
52565;DHT22;38460;53.106;7.004;2022-12-08T01:07:42;2.10;99.90
52565;DHT22;38460;53.106;7.004;2022-12-08T01:10:08;2.10;99.90
52565;DHT22;38460;53.106;7.004;2022-12-08T01:12:34;2.10;99.90
52565;DHT22;38460;53.106;7.004;2022-12-08T01:14:59;2.00;99.90
52565;DHT22;38460;53.106;7.004;2022-12-08T01:17:25;2.10;99.90
52565;DHT22;38460;53.106;7.004;2022-12-08T01:19:51;2.10;99.90
52565;DHT22;38460;53.106;7.004;2022-12-08T01:22:16;2.00;99.90
52565;DHT22;38460;53.106;7.004;2022-12-08T01:24:42;2.00;99.90
52565;DHT22;38460;53.106;7.004;2022-12-08T01:27:08;2.10;99.90
52565;DHT22;38460;53.106;7.004;2022-12-08T01:29:34;2.00;99.90
52565;DHT22;38460;53.106;7.004;2022-12-08T01:31:59;1.90;99.90
52565;DHT22;38460;53.106;7.004;2022-12-08T01:34:25;1.90;99.90
52565;DHT22;38460;53.106;7.004;2022-12-08T01:36:51;1.90;99.90
52565;DHT22;38460;53.106;7.004;2022-12-08T01:39:18;1.90;99.90
52565;DHT22;38460;53.106;7.004;2022-12-08T01:41:45;1.90;99.90
52565;DHT22;38460;53.106;7.004;2022-12-08T01:46:42;1.90;99.90
52565;DHT22;38460;53.106;7.004;2022-12-08T01:54:48;1.90;99.90
52565;DHT22;38460;53.106;7.004;2022-12-08T01:57:20;1.90;99.90
52565;DHT22;38460;53.106;7.004;2022-12-08T02:00:07;1.80;99.90
52565;DHT22;38460;53.106;7.004;2022-12-08T02:02:56;1.80;99.90
52565;DHT22;38460;53.106;7.004;2022-12-08T02:05:32;1.90;99.90
52565;DHT22;38460;53.106;7.004;2022-12-08T02:07:59;1.80;99.90
52565;DHT22;38460;53.106;7.004;2022-12-08T02:10:31;1.90;99.90
52565;DHT22;38460;53.106;7.004;2022-12-08T02:12:58;1.90;99.90
52565;DHT22;38460;53.106;7.004;2022-12-08T02:15:40;1.90;99.90
52565;DHT22;38460;53.106;7.004;2022-12-08T02:37:25;1.90;99.90
52565;DHT22;38460;53.106;7.004;2022-12-08T02:40:23;1.90;99.90
52565;DHT22;38460;53.106;7.004;2022-12-08T02:42:56;1.90;99.90
52565;DHT22;38460;53.106;7.004;2022-12-08T02:45:42;1.90;99.90
52565;DHT22;38460;53.106;7.004;2022-12-08T02:48:09;1.90;99.90
52565;DHT22;38460;53.106;7.004;2022-12-08T02:50:35;1.90;99.90
52565;DHT22;38460;53.106;7.004;2022-12-08T02:53:01;2.00;99.90
52565;DHT22;38460;53.106;7.004;2022-12-08T02:56:02;2.40;99.90
52565;DHT22;38460;53.106;7.004;2022-12-08T03:12:15;2.00;99.90
52565;DHT22;38460;53.106;7.004;2022-12-08T03:14:47;2.00;99.90
52565;DHT22;38460;53.106;7.004;2022-12-08T03:17:15;2.40;99.90
52565;DHT22;38460;53.106;7.004;2022-12-08T03:19:45;2.00;99.90
52565;DHT22;38460;53.106;7.004;2022-12-08T03:22:12;2.00;99.90
52565;DHT22;38460;53.106;7.004;2022-12-08T03:24:42;2.00;99.90
52565;DHT22;38460;53.106;7.004;2022-12-08T03:27:29;2.00;99.90
52565;DHT22;38460;53.106;7.004;2022-12-08T03:29:58;2.00;99.90
52565;DHT22;38460;53.106;7.004;2022-12-08T03:32:34;2.00;99.90
52565;DHT22;38460;53.106;7.004;2022-12-08T03:35:10;2.00;99.90
52565;DHT22;38460;53.106;7.004;2022-12-08T03:37:39;2.00;99.90
52565;DHT22;38460;53.106;7.004;2022-12-08T03:40:06;2.20;99.90
52565;DHT22;38460;53.106;7.004;2022-12-08T03:42:33;1.90;99.90
52565;DHT22;38460;53.106;7.004;2022-12-08T03:44:58;1.90;99.90
52565;DHT22;38460;53.106;7.004;2022-12-08T03:47:24;2.00;99.90
52565;DHT22;38460;53.106;7.004;2022-12-08T03:49:50;1.90;99.90
52565;DHT22;38460;53.106;7.004;2022-12-08T03:52:15;1.90;99.90
52565;DHT22;38460;53.106;7.004;2022-12-08T03:54:41;1.90;99.90
52565;DHT22;38460;53.106;7.004;2022-12-08T03:57:07;1.90;99.90
52565;DHT22;38460;53.106;7.004;2022-12-08T03:59:33;1.90;99.90
52565;DHT22;38460;53.106;7.004;2022-12-08T04:01:59;2.00;99.90
52565;DHT22;38460;53.106;7.004;2022-12-08T04:04:25;2.00;99.90
52565;DHT22;38460;53.106;7.004;2022-12-08T04:06:51;2.00;99.90
52565;DHT22;38460;53.106;7.004;2022-12-08T04:09:17;2.00;99.90
52565;DHT22;38460;53.106;7.004;2022-12-08T04:11:42;1.90;99.90
52565;DHT22;38460;53.106;7.004;2022-12-08T04:14:08;2.00;99.90
52565;DHT22;38460;53.106;7.004;2022-12-08T04:16:34;2.00;99.90
52565;DHT22;38460;53.106;7.004;2022-12-08T04:19:00;2.10;99.90
52565;DHT22;38460;53.106;7.004;2022-12-08T04:21:26;2.00;99.90
52565;DHT22;38460;53.106;7.004;2022-12-08T04:23:52;2.00;99.90
52565;DHT22;38460;53.106;7.004;2022-12-08T04:26:18;2.00;99.90
52565;DHT22;38460;53.106;7.004;2022-12-08T04:28:44;2.00;99.90
52565;DHT22;38460;53.106;7.004;2022-12-08T04:31:09;2.00;99.90
52565;DHT22;38460;53.106;7.004;2022-12-08T04:33:35;2.00;99.90
52565;DHT22;38460;53.106;7.004;2022-12-08T04:36:02;2.00;99.90
52565;DHT22;38460;53.106;7.004;2022-12-08T04:38:29;2.00;99.90
52565;DHT22;38460;53.106;7.004;2022-12-08T04:40:54;2.00;99.90
52565;DHT22;38460;53.106;7.004;2022-12-08T04:43:20;2.00;99.90
52565;DHT22;38460;53.106;7.004;2022-12-08T04:45:46;2.00;99.90
52565;DHT22;38460;53.106;7.004;2022-12-08T04:48:12;2.00;99.90
52565;DHT22;38460;53.106;7.004;2022-12-08T04:50:39;2.40;99.90
52565;DHT22;38460;53.106;7.004;2022-12-08T04:53:07;2.00;99.90
52565;DHT22;38460;53.106;7.004;2022-12-08T04:55:33;1.90;99.90
52565;DHT22;38460;53.106;7.004;2022-12-08T04:57:59;1.90;99.90
52565;DHT22;38460;53.106;7.004;2022-12-08T05:00:24;1.90;99.90
52565;DHT22;38460;53.106;7.004;2022-12-08T05:02:50;1.90;99.90
52565;DHT22;38460;53.106;7.004;2022-12-08T05:05:16;2.10;99.90
52565;DHT22;38460;53.106;7.004;2022-12-08T05:07:42;1.90;99.90
52565;DHT22;38460;53.106;7.004;2022-12-08T05:10:07;1.90;99.90
52565;DHT22;38460;53.106;7.004;2022-12-08T05:12:33;1.90;99.90
52565;DHT22;38460;53.106;7.004;2022-12-08T05:14:59;1.90;99.90
52565;DHT22;38460;53.106;7.004;2022-12-08T05:17:25;2.00;99.90
52565;DHT22;38460;53.106;7.004;2022-12-08T05:19:50;1.90;99.90
52565;DHT22;38460;53.106;7.004;2022-12-08T05:22:16;1.90;99.90
52565;DHT22;38460;53.106;7.004;2022-12-08T05:24:42;1.80;99.90
52565;DHT22;38460;53.106;7.004;2022-12-08T05:27:08;1.90;99.90
52565;DHT22;38460;53.106;7.004;2022-12-08T05:29:34;1.80;99.90
52565;DHT22;38460;53.106;7.004;2022-12-08T05:32:00;1.80;99.90
52565;DHT22;38460;53.106;7.004;2022-12-08T05:34:26;1.80;99.90
52565;DHT22;38460;53.106;7.004;2022-12-08T05:36:51;2.00;99.90
52565;DHT22;38460;53.106;7.004;2022-12-08T05:39:17;1.90;99.90
52565;DHT22;38460;53.106;7.004;2022-12-08T05:41:43;1.80;99.90
52565;DHT22;38460;53.106;7.004;2022-12-08T05:44:09;1.80;99.90
52565;DHT22;38460;53.106;7.004;2022-12-08T05:46:35;1.80;99.90
52565;DHT22;38460;53.106;7.004;2022-12-08T05:49:02;2.20;99.90
52565;DHT22;38460;53.106;7.004;2022-12-08T05:51:28;1.80;99.90
52565;DHT22;38460;53.106;7.004;2022-12-08T05:53:54;1.80;99.90
52565;DHT22;38460;53.106;7.004;2022-12-08T05:56:21;1.70;99.90
52565;DHT22;38460;53.106;7.004;2022-12-08T05:58:46;1.80;99.90
52565;DHT22;38460;53.106;7.004;2022-12-08T06:01:23;1.70;99.90
52565;DHT22;38460;53.106;7.004;2022-12-08T06:03:50;1.80;99.90
52565;DHT22;38460;53.106;7.004;2022-12-08T06:06:16;1.80;99.90
52565;DHT22;38460;53.106;7.004;2022-12-08T06:08:42;1.80;99.90
52565;DHT22;38460;53.106;7.004;2022-12-08T06:11:08;1.70;99.90
52565;DHT22;38460;53.106;7.004;2022-12-08T06:13:34;1.70;99.90
52565;DHT22;38460;53.106;7.004;2022-12-08T06:16:06;1.70;99.90
52565;DHT22;38460;53.106;7.004;2022-12-08T06:18:32;1.70;99.90
52565;DHT22;38460;53.106;7.004;2022-12-08T06:21:09;1.70;99.90
52565;DHT22;38460;53.106;7.004;2022-12-08T06:23:36;1.70;99.90
52565;DHT22;38460;53.106;7.004;2022-12-08T06:26:04;1.70;99.90
52565;DHT22;38460;53.106;7.004;2022-12-08T06:28:30;1.70;99.90
52565;DHT22;38460;53.106;7.004;2022-12-08T06:30:57;1.80;99.90
52565;DHT22;38460;53.106;7.004;2022-12-08T06:33:24;1.60;99.90
52565;DHT22;38460;53.106;7.004;2022-12-08T06:35:50;1.60;99.90
52565;DHT22;38460;53.106;7.004;2022-12-08T06:38:16;1.60;99.90
52565;DHT22;38460;53.106;7.004;2022-12-08T06:40:41;1.60;99.90
52565;DHT22;38460;53.106;7.004;2022-12-08T06:43:07;1.60;99.90
52565;DHT22;38460;53.106;7.004;2022-12-08T06:45:33;1.60;99.90
52565;DHT22;38460;53.106;7.004;2022-12-08T06:48:00;1.60;99.90
52565;DHT22;38460;53.106;7.004;2022-12-08T06:50:27;1.50;99.90
52565;DHT22;38460;53.106;7.004;2022-12-08T06:52:53;1.50;99.90
52565;DHT22;38460;53.106;7.004;2022-12-08T06:55:19;1.50;99.90
52565;DHT22;38460;53.106;7.004;2022-12-08T06:57:45;1.50;99.90
52565;DHT22;38460;53.106;7.004;2022-12-08T07:00:11;1.50;99.90
52565;DHT22;38460;53.106;7.004;2022-12-08T07:02:37;1.50;99.90
52565;DHT22;38460;53.106;7.004;2022-12-08T07:05:03;1.40;99.90
52565;DHT22;38460;53.106;7.004;2022-12-08T07:07:29;1.40;99.90
52565;DHT22;38460;53.106;7.004;2022-12-08T07:09:54;1.40;99.90
52565;DHT22;38460;53.106;7.004;2022-12-08T07:12:20;1.40;99.90
52565;DHT22;38460;53.106;7.004;2022-12-08T07:14:46;1.40;99.90
52565;DHT22;38460;53.106;7.004;2022-12-08T07:17:12;1.40;99.90
52565;DHT22;38460;53.106;7.004;2022-12-08T07:19:38;1.40;99.90
52565;DHT22;38460;53.106;7.004;2022-12-08T07:22:03;1.40;99.90
52565;DHT22;38460;53.106;7.004;2022-12-08T07:24:29;1.30;99.90
52565;DHT22;38460;53.106;7.004;2022-12-08T07:26:55;1.30;99.90
52565;DHT22;38460;53.106;7.004;2022-12-08T07:29:21;1.30;99.90
52565;DHT22;38460;53.106;7.004;2022-12-08T07:31:46;1.30;99.90
52565;DHT22;38460;53.106;7.004;2022-12-08T07:34:13;1.30;99.90
52565;DHT22;38460;53.106;7.004;2022-12-08T07:36:38;1.20;99.90
52565;DHT22;38460;53.106;7.004;2022-12-08T07:39:04;1.20;99.90
52565;DHT22;38460;53.106;7.004;2022-12-08T07:41:30;1.20;99.90
52565;DHT22;38460;53.106;7.004;2022-12-08T07:43:56;1.10;99.90
52565;DHT22;38460;53.106;7.004;2022-12-08T07:46:23;1.60;99.90
52565;DHT22;38460;53.106;7.004;2022-12-08T07:48:51;1.10;99.90
52565;DHT22;38460;53.106;7.004;2022-12-08T07:51:17;1.30;99.90
52565;DHT22;38460;53.106;7.004;2022-12-08T07:53:44;1.00;99.90
52565;DHT22;38460;53.106;7.004;2022-12-08T07:56:12;1.00;99.90
52565;DHT22;38460;53.106;7.004;2022-12-08T07:58:38;1.10;99.90
52565;DHT22;38460;53.106;7.004;2022-12-08T08:01:04;1.00;99.90
52565;DHT22;38460;53.106;7.004;2022-12-08T08:03:31;1.00;99.90
52565;DHT22;38460;53.106;7.004;2022-12-08T08:06:03;1.00;99.90
52565;DHT22;38460;53.106;7.004;2022-12-08T08:08:30;1.00;99.90
52565;DHT22;38460;53.106;7.004;2022-12-08T08:10:56;1.00;99.90
52565;DHT22;38460;53.106;7.004;2022-12-08T08:13:22;1.00;99.90
52565;DHT22;38460;53.106;7.004;2022-12-08T08:15:48;1.00;99.90
52565;DHT22;38460;53.106;7.004;2022-12-08T08:18:13;1.00;99.90
52565;DHT22;38460;53.106;7.004;2022-12-08T08:20:39;1.00;99.90
52565;DHT22;38460;53.106;7.004;2022-12-08T08:23:05;1.00;99.90
52565;DHT22;38460;53.106;7.004;2022-12-08T08:25:31;1.00;99.90
52565;DHT22;38460;53.106;7.004;2022-12-08T08:27:57;1.00;99.90
52565;DHT22;38460;53.106;7.004;2022-12-08T08:30:23;1.00;99.90
52565;DHT22;38460;53.106;7.004;2022-12-08T08:32:49;1.00;99.90
52565;DHT22;38460;53.106;7.004;2022-12-08T08:35:15;1.00;99.90
52565;DHT22;38460;53.106;7.004;2022-12-08T08:37:41;1.00;99.90
52565;DHT22;38460;53.106;7.004;2022-12-08T08:40:07;1.00;99.90
52565;DHT22;38460;53.106;7.004;2022-12-08T08:42:33;0.90;99.90
52565;DHT22;38460;53.106;7.004;2022-12-08T08:44:58;0.90;99.90
52565;DHT22;38460;53.106;7.004;2022-12-08T08:47:25;0.90;99.90
52565;DHT22;38460;53.106;7.004;2022-12-08T08:49:51;0.90;99.90
52565;DHT22;38460;53.106;7.004;2022-12-08T08:52:16;0.90;99.90
52565;DHT22;38460;53.106;7.004;2022-12-08T08:54:42;0.90;99.90
52565;DHT22;38460;53.106;7.004;2022-12-08T08:57:08;0.90;99.90
52565;DHT22;38460;53.106;7.004;2022-12-08T08:59:34;0.90;99.90
52565;DHT22;38460;53.106;7.004;2022-12-08T09:01:59;0.90;99.90
52565;DHT22;38460;53.106;7.004;2022-12-08T09:04:25;0.80;99.90
52565;DHT22;38460;53.106;7.004;2022-12-08T09:06:51;0.80;99.90
52565;DHT22;38460;53.106;7.004;2022-12-08T09:09:17;0.90;99.90
52565;DHT22;38460;53.106;7.004;2022-12-08T09:11:43;0.90;99.90
52565;DHT22;38460;53.106;7.004;2022-12-08T09:14:13;0.90;99.90
52565;DHT22;38460;53.106;7.004;2022-12-08T09:16:40;0.90;99.90
52565;DHT22;38460;53.106;7.004;2022-12-08T09:19:06;0.90;99.90
52565;DHT22;38460;53.106;7.004;2022-12-08T09:21:32;1.00;99.90
52565;DHT22;38460;53.106;7.004;2022-12-08T09:23:58;1.00;99.90
52565;DHT22;38460;53.106;7.004;2022-12-08T09:26:25;1.00;99.90
52565;DHT22;38460;53.106;7.004;2022-12-08T09:28:53;1.00;99.90
52565;DHT22;38460;53.106;7.004;2022-12-08T09:31:20;1.00;99.90
52565;DHT22;38460;53.106;7.004;2022-12-08T09:33:47;1.10;99.90
52565;DHT22;38460;53.106;7.004;2022-12-08T09:36:16;1.20;99.90
52565;DHT22;38460;53.106;7.004;2022-12-08T09:38:42;1.20;99.90
52565;DHT22;38460;53.106;7.004;2022-12-08T09:41:19;1.80;99.90
52565;DHT22;38460;53.106;7.004;2022-12-08T09:46:36;1.20;99.90
52565;DHT22;38460;53.106;7.004;2022-12-08T09:49:02;1.20;99.90
52565;DHT22;38460;53.106;7.004;2022-12-08T09:51:38;1.20;99.90
52565;DHT22;38460;53.106;7.004;2022-12-08T09:54:09;1.30;99.90
52565;DHT22;38460;53.106;7.004;2022-12-08T09:56:37;1.30;99.90
52565;DHT22;38460;53.106;7.004;2022-12-08T09:59:22;1.30;99.90
52565;DHT22;38460;53.106;7.004;2022-12-08T10:01:48;1.40;99.90
52565;DHT22;38460;53.106;7.004;2022-12-08T10:04:22;1.40;99.90
52565;DHT22;38460;53.106;7.004;2022-12-08T10:15:05;1.60;99.90
52565;DHT22;38460;53.106;7.004;2022-12-08T10:17:38;1.70;99.90
52565;DHT22;38460;53.106;7.004;2022-12-08T10:20:25;1.70;99.90
52565;DHT22;38460;53.106;7.004;2022-12-08T10:25:51;1.70;99.90
52565;DHT22;38460;53.106;7.004;2022-12-08T10:28:17;1.80;99.90
52565;DHT22;38460;53.106;7.004;2022-12-08T10:30:43;1.80;99.90
52565;DHT22;38460;53.106;7.004;2022-12-08T10:33:17;1.80;99.90
52565;DHT22;38460;53.106;7.004;2022-12-08T10:35:52;1.80;99.90
52565;DHT22;38460;53.106;7.004;2022-12-08T10:38:26;1.80;99.90
52565;DHT22;38460;53.106;7.004;2022-12-08T10:40:59;1.80;99.90
52565;DHT22;38460;53.106;7.004;2022-12-08T10:43:28;1.90;99.90
52565;DHT22;38460;53.106;7.004;2022-12-08T10:45:53;1.90;99.90
52565;DHT22;38460;53.106;7.004;2022-12-08T10:48:27;1.90;99.90
52565;DHT22;38460;53.106;7.004;2022-12-08T10:50:57;1.90;99.90
52565;DHT22;38460;53.106;7.004;2022-12-08T10:53:25;1.90;99.90
52565;DHT22;38460;53.106;7.004;2022-12-08T10:56:14;2.00;99.90
52565;DHT22;38460;53.106;7.004;2022-12-08T10:58:42;2.00;99.90
52565;DHT22;38460;53.106;7.004;2022-12-08T11:01:20;2.00;99.90
52565;DHT22;38460;53.106;7.004;2022-12-08T11:03:56;2.00;99.90
52565;DHT22;38460;53.106;7.004;2022-12-08T11:06:35;2.00;99.90
52565;DHT22;38460;53.106;7.004;2022-12-08T11:14:18;2.10;99.90
52565;DHT22;38460;53.106;7.004;2022-12-08T11:16:45;2.20;99.90
52565;DHT22;38460;53.106;7.004;2022-12-08T11:19:17;2.30;99.90
52565;DHT22;38460;53.106;7.004;2022-12-08T11:21:43;2.30;99.90
52565;DHT22;38460;53.106;7.004;2022-12-08T11:24:22;2.70;99.90
52565;DHT22;38460;53.106;7.004;2022-12-08T11:26:57;2.50;99.90
52565;DHT22;38460;53.106;7.004;2022-12-08T11:29:24;2.60;99.90
52565;DHT22;38460;53.106;7.004;2022-12-08T11:31:59;2.60;99.90
52565;DHT22;38460;53.106;7.004;2022-12-08T11:37:32;2.70;99.90
52565;DHT22;38460;53.106;7.004;2022-12-08T11:40:02;2.90;99.90
52565;DHT22;38460;53.106;7.004;2022-12-08T11:42:34;2.90;99.90
52565;DHT22;38460;53.106;7.004;2022-12-08T11:45:10;3.00;99.90
52565;DHT22;38460;53.106;7.004;2022-12-08T11:48:00;3.00;99.90
52565;DHT22;38460;53.106;7.004;2022-12-08T11:53:03;3.20;99.90
52565;DHT22;38460;53.106;7.004;2022-12-08T11:58:04;3.20;99.90
52565;DHT22;38460;53.106;7.004;2022-12-08T12:00:34;3.20;99.90
52565;DHT22;38460;53.106;7.004;2022-12-08T12:03:06;3.30;99.90
52565;DHT22;38460;53.106;7.004;2022-12-08T12:14:33;3.50;99.90
52565;DHT22;38460;53.106;7.004;2022-12-08T12:19:47;3.50;99.90
52565;DHT22;38460;53.106;7.004;2022-12-08T12:22:16;3.50;99.90
52565;DHT22;38460;53.106;7.004;2022-12-08T12:24:47;3.50;99.90
52565;DHT22;38460;53.106;7.004;2022-12-08T12:30:06;3.80;99.90
52565;DHT22;38460;53.106;7.004;2022-12-08T12:32:39;3.50;99.90
52565;DHT22;38460;53.106;7.004;2022-12-08T12:35:21;3.60;99.90
52565;DHT22;38460;53.106;7.004;2022-12-08T12:37:50;3.70;99.90
52565;DHT22;38460;53.106;7.004;2022-12-08T12:40:22;3.90;99.90
52565;DHT22;38460;53.106;7.004;2022-12-08T12:45:26;4.00;99.90
52565;DHT22;38460;53.106;7.004;2022-12-08T12:55:58;4.20;99.90
52565;DHT22;38460;53.106;7.004;2022-12-08T13:04:05;4.30;99.90
52565;DHT22;38460;53.106;7.004;2022-12-08T13:06:38;4.30;99.90
52565;DHT22;38460;53.106;7.004;2022-12-08T13:09:05;4.30;99.90
52565;DHT22;38460;53.106;7.004;2022-12-08T13:11:45;4.30;99.90
52565;DHT22;38460;53.106;7.004;2022-12-08T13:16:54;4.40;99.90
52565;DHT22;38460;53.106;7.004;2022-12-08T13:19:20;4.30;99.90
52565;DHT22;38460;53.106;7.004;2022-12-08T13:21:47;4.30;99.90
52565;DHT22;38460;53.106;7.004;2022-12-08T13:24:24;4.30;99.90
52565;DHT22;38460;53.106;7.004;2022-12-08T13:29:33;4.30;99.90
52565;DHT22;38460;53.106;7.004;2022-12-08T13:32:00;4.30;99.90
52565;DHT22;38460;53.106;7.004;2022-12-08T13:47:38;4.30;99.90
52565;DHT22;38460;53.106;7.004;2022-12-08T13:50:45;4.30;99.90
52565;DHT22;38460;53.106;7.004;2022-12-08T13:53:24;4.20;99.90
52565;DHT22;38460;53.106;7.004;2022-12-08T13:55:55;4.20;99.90
52565;DHT22;38460;53.106;7.004;2022-12-08T13:58:28;4.20;99.90
52565;DHT22;38460;53.106;7.004;2022-12-08T14:01:04;4.10;99.90
52565;DHT22;38460;53.106;7.004;2022-12-08T14:03:54;4.10;99.90
52565;DHT22;38460;53.106;7.004;2022-12-08T14:06:35;4.00;99.90
52565;DHT22;38460;53.106;7.004;2022-12-08T14:09:06;4.00;99.90
52565;DHT22;38460;53.106;7.004;2022-12-08T14:11:39;4.00;99.90
52565;DHT22;38460;53.106;7.004;2022-12-08T14:14:16;3.90;99.90
52565;DHT22;38460;53.106;7.004;2022-12-08T14:16:49;3.80;99.90
52565;DHT22;38460;53.106;7.004;2022-12-08T14:19:22;3.80;99.90
52565;DHT22;38460;53.106;7.004;2022-12-08T14:22:01;3.70;99.90
52565;DHT22;38460;53.106;7.004;2022-12-08T14:24:29;3.70;99.90
52565;DHT22;38460;53.106;7.004;2022-12-08T14:27:03;3.60;99.90
52565;DHT22;38460;53.106;7.004;2022-12-08T14:29:50;3.60;99.90
52565;DHT22;38460;53.106;7.004;2022-12-08T14:32:30;3.60;99.90
52565;DHT22;38460;53.106;7.004;2022-12-08T14:37:41;3.50;99.90
52565;DHT22;38460;53.106;7.004;2022-12-08T14:40:33;3.40;99.90
52565;DHT22;38460;53.106;7.004;2022-12-08T14:54:08;3.20;99.90
52565;DHT22;38460;53.106;7.004;2022-12-08T14:56:52;3.50;99.90
52565;DHT22;38460;53.106;7.004;2022-12-08T14:59:33;3.10;99.90
52565;DHT22;38460;53.106;7.004;2022-12-08T15:05:03;3.00;99.90
52565;DHT22;38460;53.106;7.004;2022-12-08T15:07:52;3.00;99.90
52565;DHT22;38460;53.106;7.004;2022-12-08T15:10:20;2.90;99.90
52565;DHT22;38460;53.106;7.004;2022-12-08T15:15:54;2.80;99.90
52565;DHT22;38460;53.106;7.004;2022-12-08T15:18:29;2.70;99.90
52565;DHT22;38460;53.106;7.004;2022-12-08T15:21:01;2.80;99.90
52565;DHT22;38460;53.106;7.004;2022-12-08T15:23:28;2.60;99.90
52565;DHT22;38460;53.106;7.004;2022-12-08T15:25:56;2.60;99.90
52565;DHT22;38460;53.106;7.004;2022-12-08T15:28:25;2.50;99.90
52565;DHT22;38460;53.106;7.004;2022-12-08T15:30:52;2.40;99.90
52565;DHT22;38460;53.106;7.004;2022-12-08T15:33:18;2.40;99.90
52565;DHT22;38460;53.106;7.004;2022-12-08T15:35:46;2.30;99.90
52565;DHT22;38460;53.106;7.004;2022-12-08T15:38:26;2.30;99.90
52565;DHT22;38460;53.106;7.004;2022-12-08T15:40:56;2.20;99.90
52565;DHT22;38460;53.106;7.004;2022-12-08T15:43:25;2.20;99.90
52565;DHT22;38460;53.106;7.004;2022-12-08T15:45:51;2.20;99.90
52565;DHT22;38460;53.106;7.004;2022-12-08T15:48:21;2.10;99.90
52565;DHT22;38460;53.106;7.004;2022-12-08T15:50:48;2.40;99.90
52565;DHT22;38460;53.106;7.004;2022-12-08T15:53:14;2.10;99.90
52565;DHT22;38460;53.106;7.004;2022-12-08T15:55:40;2.00;99.90
52565;DHT22;38460;53.106;7.004;2022-12-08T16:00:42;2.00;99.90
52565;DHT22;38460;53.106;7.004;2022-12-08T16:03:22;2.00;99.90
52565;DHT22;38460;53.106;7.004;2022-12-08T16:05:48;1.90;99.90
52565;DHT22;38460;53.106;7.004;2022-12-08T16:08:15;1.80;99.90
52565;DHT22;38460;53.106;7.004;2022-12-08T16:10:41;1.80;99.90
52565;DHT22;38460;53.106;7.004;2022-12-08T16:13:20;1.70;99.90
52565;DHT22;38460;53.106;7.004;2022-12-08T16:16:10;2.10;99.90
52565;DHT22;38460;53.106;7.004;2022-12-08T16:18:37;1.70;99.90
52565;DHT22;38460;53.106;7.004;2022-12-08T16:21:04;1.60;99.90
52565;DHT22;38460;53.106;7.004;2022-12-08T16:23:31;1.60;99.90
52565;DHT22;38460;53.106;7.004;2022-12-08T16:25:56;1.60;99.90
52565;DHT22;38460;53.106;7.004;2022-12-08T16:28:24;1.50;99.90
52565;DHT22;38460;53.106;7.004;2022-12-08T16:30:50;1.40;99.90
52565;DHT22;38460;53.106;7.004;2022-12-08T16:33:16;1.40;99.90
52565;DHT22;38460;53.106;7.004;2022-12-08T16:35:42;1.40;99.90
52565;DHT22;38460;53.106;7.004;2022-12-08T16:38:12;1.40;99.90
52565;DHT22;38460;53.106;7.004;2022-12-08T16:40:38;1.40;99.90
52565;DHT22;38460;53.106;7.004;2022-12-08T16:43:24;1.30;99.90
52565;DHT22;38460;53.106;7.004;2022-12-08T16:45:50;1.40;99.90
52565;DHT22;38460;53.106;7.004;2022-12-08T16:48:15;1.30;99.90
52565;DHT22;38460;53.106;7.004;2022-12-08T16:50:44;1.20;99.90
52565;DHT22;38460;53.106;7.004;2022-12-08T16:53:11;1.20;99.90
52565;DHT22;38460;53.106;7.004;2022-12-08T16:55:38;1.20;99.90
52565;DHT22;38460;53.106;7.004;2022-12-08T16:58:04;1.10;99.90
52565;DHT22;38460;53.106;7.004;2022-12-08T17:00:31;1.10;99.90
52565;DHT22;38460;53.106;7.004;2022-12-08T17:03:02;1.10;99.90
52565;DHT22;38460;53.106;7.004;2022-12-08T17:05:28;1.00;99.90
52565;DHT22;38460;53.106;7.004;2022-12-08T17:07:54;1.00;99.90
52565;DHT22;38460;53.106;7.004;2022-12-08T17:10:23;0.90;99.90
52565;DHT22;38460;53.106;7.004;2022-12-08T17:12:50;0.90;99.90
52565;DHT22;38460;53.106;7.004;2022-12-08T17:15:18;1.20;99.90
52565;DHT22;38460;53.106;7.004;2022-12-08T17:17:44;0.90;99.90
52565;DHT22;38460;53.106;7.004;2022-12-08T17:20:21;0.90;99.90
52565;DHT22;38460;53.106;7.004;2022-12-08T17:22:48;0.90;99.90
52565;DHT22;38460;53.106;7.004;2022-12-08T17:25:14;0.80;99.90
52565;DHT22;38460;53.106;7.004;2022-12-08T17:27:41;0.80;99.90
52565;DHT22;38460;53.106;7.004;2022-12-08T17:30:08;0.80;99.90
52565;DHT22;38460;53.106;7.004;2022-12-08T17:32:37;0.70;99.90
52565;DHT22;38460;53.106;7.004;2022-12-08T17:35:03;0.70;99.90
52565;DHT22;38460;53.106;7.004;2022-12-08T17:37:29;0.70;99.90
52565;DHT22;38460;53.106;7.004;2022-12-08T17:39:55;0.70;99.90
52565;DHT22;38460;53.106;7.004;2022-12-08T17:42:20;0.60;99.90
52565;DHT22;38460;53.106;7.004;2022-12-08T17:44:50;0.60;99.90
52565;DHT22;38460;53.106;7.004;2022-12-08T17:47:16;0.60;99.90
52565;DHT22;38460;53.106;7.004;2022-12-08T17:49:42;0.60;99.90
52565;DHT22;38460;53.106;7.004;2022-12-08T17:52:09;0.60;99.90
52565;DHT22;38460;53.106;7.004;2022-12-08T17:54:36;0.60;99.90
52565;DHT22;38460;53.106;7.004;2022-12-08T17:57:01;0.50;99.90
52565;DHT22;38460;53.106;7.004;2022-12-08T17:59:27;0.50;99.90
52565;DHT22;38460;53.106;7.004;2022-12-08T18:01:55;0.50;99.90
52565;DHT22;38460;53.106;7.004;2022-12-08T18:04:21;0.50;99.90
52565;DHT22;38460;53.106;7.004;2022-12-08T18:06:47;0.40;99.90
52565;DHT22;38460;53.106;7.004;2022-12-08T18:09:13;0.40;99.90
52565;DHT22;38460;53.106;7.004;2022-12-08T18:11:40;0.40;99.90
52565;DHT22;38460;53.106;7.004;2022-12-08T18:14:07;0.40;99.90
52565;DHT22;38460;53.106;7.004;2022-12-08T18:16:43;0.40;99.90